createdAt,value
2023-02-19T00:00:09.195Z,79.64
2023-02-19T00:03:02.508Z,78.70
2023-02-19T00:05:32.978Z,78.23
2023-02-19T00:08:01.760Z,78.05
2023-02-19T00:10:30.825Z,78.25
2023-02-19T00:12:59.596Z,78.06
2023-02-19T00:15:28.783Z,77.94
2023-02-19T00:17:57.595Z,78.20
2023-02-19T00:20:26.926Z,78.15
2023-02-19T00:22:57.084Z,78.54
2023-02-19T00:25:26.164Z,78.68
2023-02-19T00:27:54.983Z,78.68
2023-02-19T00:30:25.398Z,79.25
2023-02-19T00:32:55.467Z,79.18
2023-02-19T00:35:24.825Z,79.53
2023-02-19T00:37:53.734Z,79.70
2023-02-19T00:40:26.053Z,79.14
2023-02-19T00:42:55.663Z,78.99
2023-02-19T00:45:24.935Z,78.31
2023-02-19T00:47:54.370Z,77.39
2023-02-19T00:50:23.638Z,77.64
2023-02-19T00:52:52.407Z,76.95
2023-02-19T00:55:21.499Z,76.47
2023-02-19T00:57:51.733Z,76.64
2023-02-19T01:00:21.139Z,77.10
2023-02-19T01:02:49.937Z,77.39
2023-02-19T01:05:19.214Z,76.97
2023-02-19T01:07:48.005Z,77.29
2023-02-19T01:10:17.533Z,76.26
2023-02-19T01:12:46.336Z,75.95
2023-02-19T01:15:16.828Z,75.54
2023-02-19T01:17:45.792Z,75.68
2023-02-19T01:20:14.849Z,75.72
2023-02-19T01:22:43.811Z,75.55
2023-02-19T01:25:12.898Z,75.86
2023-02-19T01:27:41.693Z,75.63
2023-02-19T01:30:12.341Z,76.17
2023-02-19T01:32:42.660Z,76.47
2023-02-19T01:35:11.800Z,76.08
2023-02-19T01:37:40.642Z,76.44
2023-02-19T01:40:10.896Z,75.76
2023-02-19T01:42:45.047Z,75.17
2023-02-19T01:45:27.368Z,74.75
2023-02-19T01:48:13.564Z,75.21
2023-02-19T01:50:48.872Z,74.43
2023-02-19T01:53:24.060Z,74.68
2023-02-19T01:56:00.502Z,74.58
2023-02-19T01:58:34.427Z,74.51
2023-02-19T02:01:08.495Z,74.51
2023-02-19T02:03:43.099Z,74.67
2023-02-19T02:06:21.213Z,74.93
2023-02-19T02:09:10.779Z,75.40
2023-02-19T02:11:45.097Z,75.42
2023-02-19T02:14:14.662Z,75.92
2023-02-19T02:16:56.400Z,75.76
2023-02-19T02:20:02.459Z,76.37
2023-02-19T02:22:40.109Z,77.10
2023-02-19T02:26:00.991Z,77.25
2023-02-19T02:29:14.978Z,77.45
2023-02-19T02:31:50.886Z,77.73
2023-02-19T02:34:28.337Z,77.86
2023-02-19T02:36:59.377Z,78.28
2023-02-19T02:39:33.315Z,78.82
2023-02-19T02:42:20.554Z,79.28
2023-02-19T02:45:34.391Z,79.38
2023-02-19T02:48:22.836Z,79.89
2023-02-19T02:50:59.801Z,79.73
2023-02-19T02:53:57.205Z,79.52
2023-02-19T02:56:28.016Z,79.46
2023-02-19T02:59:01.957Z,79.24
2023-02-19T03:01:56.070Z,79.11
2023-02-19T03:05:00.255Z,79.17
2023-02-19T03:07:37.543Z,78.71
2023-02-19T03:10:13.006Z,78.46
2023-02-19T03:13:03.295Z,78.58
2023-02-19T03:15:58.714Z,78.41
2023-02-19T03:18:50.654Z,78.60
2023-02-19T03:21:24.215Z,77.93
2023-02-19T03:24:14.488Z,77.87
2023-02-19T03:26:54.127Z,76.96
2023-02-19T03:29:29.235Z,76.91
2023-02-19T03:32:10.051Z,77.04
2023-02-19T03:34:45.181Z,76.60
2023-02-19T03:37:27.912Z,76.36
2023-02-19T03:40:00.905Z,76.64
2023-02-19T03:42:44.673Z,76.00
2023-02-19T03:45:45.214Z,76.28
2023-02-19T03:48:30.068Z,76.37
2023-02-19T03:51:33.252Z,75.63
2023-02-19T03:54:19.525Z,75.49
2023-02-19T03:56:55.354Z,75.83
2023-02-19T03:59:35.978Z,76.02
2023-02-19T04:02:11.100Z,75.69
2023-02-19T04:04:46.963Z,75.80
2023-02-19T04:07:16.698Z,75.82
2023-02-19T04:09:51.175Z,75.83
2023-02-19T04:12:24.782Z,75.97
2023-02-19T04:15:00.928Z,75.90
2023-02-19T04:17:38.531Z,76.05
2023-02-19T04:20:11.955Z,76.31
2023-02-19T04:22:42.981Z,76.26
2023-02-19T04:25:13.257Z,76.21
2023-02-19T04:27:45.531Z,75.79
2023-02-19T04:30:15.910Z,76.24
2023-02-19T04:32:45.096Z,76.18
2023-02-19T04:35:13.869Z,76.60
2023-02-19T04:37:43.475Z,76.79
2023-02-19T04:40:13.956Z,76.52
2023-02-19T04:42:43.027Z,76.38
2023-02-19T04:45:11.792Z,76.73
2023-02-19T04:47:40.840Z,76.61
2023-02-19T04:50:10.027Z,76.95
2023-02-19T04:52:39.382Z,76.67
2023-02-19T04:55:09.846Z,77.13
2023-02-19T04:57:40.345Z,77.10
2023-02-19T05:00:11.654Z,77.19
2023-02-19T05:02:40.771Z,77.04
2023-02-19T05:05:09.812Z,77.27
2023-02-19T05:07:38.894Z,77.38
2023-02-19T05:10:08.549Z,77.37
2023-02-19T05:12:39.028Z,77.79
2023-02-19T05:15:08.511Z,77.40
2023-02-19T05:17:37.907Z,77.62
2023-02-19T05:20:07.693Z,78.10
2023-02-19T05:22:36.770Z,78.06
2023-02-19T05:25:07.163Z,77.76
2023-02-19T05:27:36.266Z,77.74
2023-02-19T05:30:07.329Z,77.92
2023-02-19T05:32:36.916Z,78.08
2023-02-19T05:35:06.589Z,78.24
2023-02-19T05:37:35.689Z,77.70
2023-02-19T05:40:04.934Z,78.02
2023-02-19T05:42:33.991Z,77.79
2023-02-19T05:45:02.761Z,77.94
2023-02-19T05:47:33.237Z,78.20
2023-02-19T05:50:02.047Z,78.11
2023-02-19T05:52:31.112Z,77.87
2023-02-19T05:54:59.922Z,78.24
2023-02-19T05:57:28.952Z,78.14
2023-02-19T05:59:58.404Z,77.74
2023-02-19T06:02:27.492Z,77.48
2023-02-19T06:04:57.833Z,77.58
2023-02-19T06:07:26.910Z,77.51
2023-02-19T06:09:55.950Z,77.44
2023-02-19T06:12:25.340Z,77.66
2023-02-19T06:14:54.122Z,77.95
2023-02-19T06:17:23.231Z,78.01
2023-02-19T06:19:52.122Z,77.84
2023-02-19T06:22:22.586Z,77.71
2023-02-19T06:24:51.793Z,77.53
2023-02-19T06:27:21.133Z,77.48
2023-02-19T06:29:49.976Z,77.57
2023-02-19T06:32:19.580Z,77.83
2023-02-19T06:34:48.507Z,77.94
2023-02-19T06:37:17.561Z,78.04
2023-02-19T06:39:47.689Z,77.35
2023-02-19T06:42:16.743Z,77.52
2023-02-19T06:44:45.577Z,77.41
2023-02-19T06:47:14.790Z,77.54
2023-02-19T06:49:43.609Z,77.71
2023-02-19T06:52:12.774Z,77.49
2023-02-19T06:54:41.536Z,77.78
2023-02-19T06:57:11.957Z,76.81
2023-02-19T06:59:40.780Z,76.96
2023-02-19T07:02:12.827Z,77.04
2023-02-19T07:04:41.643Z,76.39
2023-02-19T07:07:13.200Z,76.69
2023-02-19T07:09:41.987Z,77.29
2023-02-19T07:12:12.420Z,77.32
2023-02-19T07:14:41.201Z,77.11
2023-02-19T07:17:10.310Z,77.24
2023-02-19T07:19:39.095Z,77.17
2023-02-19T07:22:08.141Z,76.81
2023-02-19T07:24:36.945Z,77.11
2023-02-19T07:27:06.002Z,77.50
2023-02-19T07:29:36.166Z,77.09
2023-02-19T07:32:05.996Z,77.00
2023-02-19T07:34:34.787Z,77.18
2023-02-19T07:37:03.981Z,76.84
2023-02-19T07:39:32.738Z,76.78
2023-02-19T07:42:02.065Z,76.72
2023-02-19T07:44:35.468Z,76.32
2023-02-19T07:47:04.573Z,76.27
2023-02-19T07:49:33.389Z,76.31
2023-02-19T07:52:02.717Z,76.37
2023-02-19T07:54:31.498Z,76.05
2023-02-19T07:57:00.728Z,76.04
2023-02-19T07:59:29.500Z,76.00
2023-02-19T08:02:17.292Z,75.72
2023-02-19T08:04:48.557Z,75.89
2023-02-19T08:07:17.706Z,75.64
2023-02-19T08:10:07.626Z,75.94
2023-02-19T08:12:53.468Z,75.54
2023-02-19T08:15:22.543Z,75.77
2023-02-19T08:17:53.165Z,76.32
2023-02-19T08:20:22.200Z,75.92
2023-02-19T08:22:51.300Z,75.67
2023-02-19T08:25:20.205Z,75.19
2023-02-19T08:27:49.300Z,75.73
2023-02-19T08:30:18.363Z,75.26
2023-02-19T08:32:47.520Z,75.31
2023-02-19T08:35:17.868Z,75.43
2023-02-19T08:37:47.056Z,75.37
2023-02-19T08:40:15.987Z,75.25
2023-02-19T08:42:45.574Z,75.14
2023-02-19T08:45:14.381Z,74.66
2023-02-19T08:47:43.485Z,74.67
2023-02-19T08:50:12.659Z,74.31
2023-02-19T08:52:43.140Z,73.38
2023-02-19T08:55:12.027Z,73.39
2023-02-19T08:57:41.429Z,73.31
2023-02-19T09:00:12.456Z,73.12
2023-02-19T09:02:41.663Z,72.39
2023-02-19T09:05:12.237Z,72.44
2023-02-19T09:07:43.160Z,72.51
2023-02-19T09:10:14.713Z,72.97
2023-02-19T09:12:43.926Z,72.72
2023-02-19T09:15:13.618Z,72.93
2023-02-19T09:17:42.788Z,73.08
2023-02-19T09:20:12.527Z,72.87
2023-02-19T09:22:43.060Z,72.99
2023-02-19T09:25:11.887Z,73.21
2023-02-19T09:27:40.951Z,72.61
2023-02-19T09:30:10.826Z,71.99
2023-02-19T09:32:39.897Z,72.22
2023-02-19T09:35:09.130Z,72.20
2023-02-19T09:37:38.226Z,72.24
2023-02-19T09:40:10.444Z,71.75
2023-02-19T09:42:43.839Z,71.22
2023-02-19T09:45:23.839Z,71.74
2023-02-19T09:47:57.818Z,71.25
2023-02-19T09:50:37.494Z,71.52
2023-02-19T09:53:17.231Z,72.09
2023-02-19T09:55:47.712Z,71.72
2023-02-19T09:58:27.284Z,71.47
2023-02-19T10:00:59.957Z,70.85
2023-02-19T10:03:34.339Z,70.20
2023-02-19T10:06:11.245Z,68.64
2023-02-19T10:08:42.716Z,68.21
2023-02-19T10:11:15.254Z,67.64
2023-02-19T10:13:50.634Z,67.44
2023-02-19T10:16:25.954Z,67.62
2023-02-19T10:18:56.554Z,67.72
2023-02-19T10:21:29.024Z,68.34
2023-02-19T10:24:03.890Z,67.61
2023-02-19T10:26:36.680Z,67.38
2023-02-19T10:29:07.282Z,65.76
2023-02-19T10:31:36.239Z,62.23
2023-02-19T10:34:07.616Z,60.00
2023-02-19T10:36:41.255Z,60.04
2023-02-19T10:39:38.645Z,59.83
2023-02-19T10:42:21.624Z,58.47
2023-02-19T10:44:58.674Z,59.46
2023-02-19T10:47:29.688Z,60.14
2023-02-19T10:50:04.310Z,58.15
2023-02-19T10:52:36.829Z,57.68
2023-02-19T10:55:28.443Z,56.76
2023-02-19T10:57:59.922Z,56.35
2023-02-19T11:00:31.229Z,55.86
2023-02-19T11:03:22.149Z,55.84
2023-02-19T11:06:02.373Z,56.44
2023-02-19T11:08:36.227Z,54.82
2023-02-19T11:11:05.558Z,54.83
2023-02-19T11:13:38.149Z,53.24
2023-02-19T11:16:07.667Z,52.03
2023-02-19T11:18:36.641Z,51.48
2023-02-19T11:21:08.708Z,52.80
2023-02-19T11:23:46.204Z,53.84
2023-02-19T11:26:22.461Z,54.82
2023-02-19T11:28:59.630Z,56.12
2023-02-19T11:31:32.217Z,56.77
2023-02-19T11:34:03.957Z,56.79
2023-02-19T11:36:36.453Z,56.77
2023-02-19T11:39:29.060Z,56.27
2023-02-19T11:42:39.015Z,57.03
2023-02-19T11:45:35.727Z,58.05
2023-02-19T11:48:42.115Z,58.42
2023-02-19T11:51:41.123Z,59.15
2023-02-19T11:54:45.298Z,56.69
2023-02-19T11:57:37.221Z,56.17
2023-02-19T12:00:25.765Z,56.80
2023-02-19T12:03:33.145Z,54.46
2023-02-19T12:06:20.721Z,51.45
2023-02-19T12:09:32.203Z,48.47
2023-02-19T12:12:38.914Z,49.94
2023-02-19T12:15:31.967Z,51.91
2023-02-19T12:18:29.713Z,51.62
2023-02-19T12:21:12.362Z,51.49
2023-02-19T12:24:44.981Z,51.57
2023-02-19T12:27:32.370Z,51.86
2023-02-19T12:30:33.348Z,50.55
2023-02-19T12:33:58.176Z,50.48
2023-02-19T12:36:38.929Z,49.29
2023-02-19T12:39:24.632Z,49.93
2023-02-19T12:42:07.352Z,51.03
2023-02-19T12:44:51.767Z,51.47
2023-02-19T12:47:30.924Z,52.03
2023-02-19T12:50:09.426Z,51.37
2023-02-19T12:52:44.381Z,51.84
2023-02-19T12:55:26.677Z,51.03
2023-02-19T12:57:58.030Z,51.41
2023-02-19T13:00:37.524Z,51.38
2023-02-19T13:03:21.136Z,52.63
2023-02-19T13:05:59.679Z,52.33
2023-02-19T13:08:42.120Z,53.57
2023-02-19T13:11:26.133Z,54.20
2023-02-19T13:14:01.410Z,54.56
2023-02-19T13:16:33.589Z,54.60
2023-02-19T13:19:06.322Z,54.36
2023-02-19T13:21:56.735Z,54.86
2023-02-19T13:24:32.001Z,55.76
2023-02-19T13:27:21.070Z,55.99
2023-02-19T13:30:20.267Z,55.91
2023-02-19T13:33:06.367Z,56.28
2023-02-19T13:36:08.345Z,56.37
2023-02-19T13:38:42.222Z,57.26
2023-02-19T13:41:28.580Z,57.88
2023-02-19T13:44:05.086Z,57.12
2023-02-19T13:46:42.649Z,57.58
2023-02-19T13:49:50.261Z,56.94
2023-02-19T13:52:42.220Z,56.70
2023-02-19T13:55:52.118Z,55.83
2023-02-19T13:58:55.140Z,56.00
2023-02-19T14:02:14.461Z,56.01
2023-02-19T14:04:51.891Z,56.37
2023-02-19T14:08:04.159Z,56.15
2023-02-19T14:11:05.115Z,56.84
2023-02-19T14:14:27.711Z,57.55
2023-02-19T14:17:04.659Z,57.19
2023-02-19T14:19:51.903Z,56.51
2023-02-19T14:23:19.123Z,55.16
2023-02-19T14:25:58.414Z,55.10
2023-02-19T14:28:41.734Z,55.00
2023-02-19T14:31:25.587Z,53.97
2023-02-19T14:33:59.450Z,54.46
2023-02-19T14:36:45.246Z,54.06
2023-02-19T14:39:20.775Z,53.53
2023-02-19T14:41:54.134Z,53.22
2023-02-19T14:44:26.840Z,52.62
2023-02-19T14:47:01.742Z,52.39
2023-02-19T14:49:42.562Z,51.32
2023-02-19T14:52:19.998Z,52.23
2023-02-19T14:54:56.564Z,52.04
2023-02-19T14:57:30.698Z,52.10
2023-02-19T15:00:01.619Z,51.40
2023-02-19T15:02:33.762Z,51.50
2023-02-19T15:05:02.992Z,51.99
2023-02-19T15:07:35.093Z,51.39
2023-02-19T15:10:08.070Z,51.89
2023-02-19T15:12:45.397Z,51.51
2023-02-19T15:15:23.101Z,51.65
2023-02-19T15:17:54.531Z,51.81
2023-02-19T15:20:27.560Z,52.35
2023-02-19T15:22:59.620Z,52.67
2023-02-19T15:25:35.935Z,52.24
2023-02-19T15:28:20.967Z,52.78
2023-02-19T15:30:50.553Z,52.55
2023-02-19T15:33:22.191Z,52.06
2023-02-19T15:35:54.856Z,52.32
2023-02-19T15:38:24.408Z,52.47
2023-02-19T15:40:57.262Z,52.85
2023-02-19T15:43:31.044Z,52.76
2023-02-19T15:46:07.788Z,52.91
2023-02-19T15:48:42.631Z,53.50
2023-02-19T15:51:23.271Z,52.87
2023-02-19T15:53:59.844Z,53.17
2023-02-19T15:56:34.568Z,53.12
2023-02-19T15:59:07.891Z,53.12
2023-02-19T16:01:39.825Z,52.95
2023-02-19T16:04:15.271Z,53.10
2023-02-19T16:06:58.200Z,52.59
2023-02-19T16:09:33.429Z,52.87
2023-02-19T16:12:20.368Z,52.64
2023-02-19T16:14:49.434Z,52.90
2023-02-19T16:17:23.241Z,52.91
2023-02-19T16:19:57.988Z,52.89
2023-02-19T16:22:31.672Z,53.23
2023-02-19T16:25:05.892Z,53.12
2023-02-19T16:27:39.614Z,53.76
2023-02-19T16:30:25.694Z,53.79
2023-02-19T16:33:40.356Z,53.34
2023-02-19T16:36:35.523Z,54.16
2023-02-19T16:39:25.032Z,53.76
2023-02-19T16:42:19.342Z,53.73
2023-02-19T16:44:50.016Z,53.84
2023-02-19T16:47:31.247Z,54.07
2023-02-19T16:50:05.026Z,54.14
2023-02-19T16:52:33.995Z,54.47
2023-02-19T16:55:03.829Z,54.54
2023-02-19T16:57:32.603Z,54.87
2023-02-19T17:00:03.037Z,55.23
2023-02-19T17:02:33.952Z,55.26
2023-02-19T17:05:03.925Z,55.58
2023-02-19T17:07:32.734Z,55.12
2023-02-19T17:10:01.876Z,55.07
2023-02-19T17:12:31.082Z,54.61
2023-02-19T17:15:00.189Z,54.43
2023-02-19T17:17:30.414Z,54.50
2023-02-19T17:19:59.490Z,54.98
2023-02-19T17:22:28.458Z,54.79
2023-02-19T17:24:57.584Z,55.13
2023-02-19T17:27:26.372Z,55.17
2023-02-19T17:29:55.446Z,55.41
2023-02-19T17:32:24.536Z,55.19
2023-02-19T17:34:54.981Z,55.85
2023-02-19T17:37:23.774Z,56.04
2023-02-19T17:39:52.877Z,56.57
2023-02-19T17:42:21.698Z,56.33
2023-02-19T17:44:52.980Z,56.99
2023-02-19T17:47:22.499Z,56.92
2023-02-19T17:49:51.562Z,57.21
2023-02-19T17:52:21.788Z,57.55
2023-02-19T17:54:50.924Z,57.67
2023-02-19T17:57:19.761Z,57.61
2023-02-19T17:59:48.924Z,57.13
2023-02-19T18:02:17.693Z,57.84
2023-02-19T18:04:46.794Z,56.67
2023-02-19T18:07:15.657Z,56.71
2023-02-19T18:09:46.468Z,56.42
2023-02-19T18:12:15.310Z,57.03
2023-02-19T18:14:47.511Z,57.12
2023-02-19T18:17:16.775Z,56.75
2023-02-19T18:19:45.991Z,56.81
2023-02-19T18:22:14.850Z,56.13
2023-02-19T18:24:49.537Z,56.13
2023-02-19T18:27:20.390Z,56.35
2023-02-19T18:29:52.154Z,56.27
2023-02-19T18:32:21.911Z,56.33
2023-02-19T18:34:51.472Z,55.95
2023-02-19T18:37:20.854Z,55.94
2023-02-19T18:39:51.865Z,55.60
2023-02-19T18:42:23.032Z,56.13
2023-02-19T18:44:53.609Z,56.00
2023-02-19T18:47:25.421Z,56.49
2023-02-19T18:49:59.328Z,56.43
2023-02-19T18:52:29.547Z,56.55
2023-02-19T18:55:00.664Z,56.59
2023-02-19T18:57:29.516Z,57.31
2023-02-19T18:59:58.704Z,56.60
2023-02-19T19:02:33.683Z,56.53
2023-02-19T19:05:09.342Z,56.98
2023-02-19T19:07:38.154Z,57.74
2023-02-19T19:10:10.664Z,57.68
2023-02-19T19:12:39.588Z,57.54
2023-02-19T19:15:09.950Z,57.46
2023-02-19T19:17:39.982Z,57.61
2023-02-19T19:20:10.699Z,57.47
2023-02-19T19:22:39.908Z,57.62
2023-02-19T19:25:11.158Z,57.20
2023-02-19T19:27:40.010Z,57.33
2023-02-19T19:30:10.426Z,56.87
2023-02-19T19:32:39.985Z,56.96
2023-02-19T19:35:10.231Z,56.87
2023-02-19T19:37:39.076Z,56.78
2023-02-19T19:40:11.858Z,56.51
2023-02-19T19:42:42.012Z,56.50
2023-02-19T19:45:12.553Z,55.83
2023-02-19T19:47:41.458Z,56.17
2023-02-19T19:50:13.107Z,55.88
2023-02-19T19:52:42.032Z,55.86
2023-02-19T19:55:13.732Z,56.02
2023-02-19T19:57:42.479Z,56.34
2023-02-19T20:00:17.772Z,56.37
2023-02-19T20:02:46.857Z,56.41
2023-02-19T20:05:16.934Z,56.49
2023-02-19T20:07:46.192Z,56.62
2023-02-19T20:10:20.034Z,56.45
2023-02-19T20:12:48.953Z,56.09
2023-02-19T20:15:22.765Z,56.20
2023-02-19T20:17:51.872Z,56.41
2023-02-19T20:20:22.715Z,56.54
2023-02-19T20:22:52.880Z,56.10
2023-02-19T20:25:24.992Z,56.70
2023-02-19T20:27:55.028Z,56.52
2023-02-19T20:30:25.864Z,56.61
2023-02-19T20:32:55.228Z,56.51
2023-02-19T20:35:26.495Z,56.50
2023-02-19T20:37:55.664Z,57.07
2023-02-19T20:40:30.541Z,56.85
2023-02-19T20:43:00.984Z,56.92
2023-02-19T20:45:30.902Z,57.71
2023-02-19T20:47:59.758Z,57.42
2023-02-19T20:50:28.918Z,57.81
2023-02-19T20:52:58.135Z,57.48
2023-02-19T20:55:28.965Z,57.77
2023-02-19T20:57:57.740Z,57.70
2023-02-19T21:00:27.065Z,57.39
2023-02-19T21:02:55.981Z,57.90
2023-02-19T21:05:25.186Z,57.78
2023-02-19T21:07:54.098Z,58.01
2023-02-19T21:10:23.220Z,57.59
2023-02-19T21:12:54.393Z,57.85
2023-02-19T21:15:23.870Z,57.75
2023-02-19T21:17:52.708Z,58.46
2023-02-19T21:20:21.792Z,58.02
2023-02-19T21:22:50.801Z,58.73
2023-02-19T21:25:19.863Z,58.75
2023-02-19T21:27:48.703Z,59.05
2023-02-19T21:30:19.805Z,59.09
2023-02-19T21:32:48.614Z,59.07
2023-02-19T21:35:17.843Z,59.17
2023-02-19T21:37:46.683Z,59.36
2023-02-19T21:40:16.301Z,59.00
2023-02-19T21:42:45.141Z,58.91
2023-02-19T21:45:14.276Z,59.16
2023-02-19T21:47:45.658Z,59.12
2023-02-19T21:50:14.793Z,58.72
2023-02-19T21:52:43.885Z,58.85
2023-02-19T21:55:12.968Z,59.27
2023-02-19T21:57:42.125Z,58.86
2023-02-19T22:00:12.806Z,59.54
2023-02-19T22:02:43.312Z,59.55
2023-02-19T22:05:13.919Z,59.76
2023-02-19T22:07:42.856Z,59.98
2023-02-19T22:10:13.503Z,60.33
2023-02-19T22:12:42.318Z,60.31
2023-02-19T22:15:11.424Z,60.40
2023-02-19T22:17:40.696Z,60.81
2023-02-19T22:20:10.266Z,61.59
2023-02-19T22:22:41.796Z,61.50
2023-02-19T22:25:10.921Z,61.42
2023-02-19T22:27:39.849Z,62.25
2023-02-19T22:30:10.423Z,62.03
2023-02-19T22:32:39.493Z,62.58
2023-02-19T22:35:09.200Z,63.21
2023-02-19T22:37:39.372Z,63.00
2023-02-19T22:40:09.777Z,63.23
2023-02-19T22:42:39.675Z,63.86
2023-02-19T22:45:11.599Z,63.68
2023-02-19T22:47:42.093Z,63.91
2023-02-19T22:50:19.575Z,63.86
2023-02-19T22:52:50.226Z,64.70
2023-02-19T22:55:19.791Z,64.53
2023-02-19T22:57:48.750Z,64.41
2023-02-19T23:00:21.655Z,64.69
2023-02-19T23:02:50.790Z,64.67
2023-02-19T23:05:20.036Z,64.87
2023-02-19T23:07:50.199Z,65.05
2023-02-19T23:10:19.437Z,65.18
2023-02-19T23:12:48.252Z,65.31
2023-02-19T23:15:17.393Z,65.35
2023-02-19T23:17:46.194Z,65.29
2023-02-19T23:20:15.416Z,65.25
2023-02-19T23:22:44.696Z,65.16
2023-02-19T23:25:15.158Z,65.48
2023-02-19T23:27:43.995Z,65.45
2023-02-19T23:30:14.091Z,65.51
2023-02-19T23:32:42.884Z,65.43
2023-02-19T23:35:12.080Z,65.02
2023-02-19T23:37:40.891Z,65.07
2023-02-19T23:40:12.084Z,65.59
2023-02-19T23:42:42.254Z,66.47
2023-02-19T23:45:11.460Z,67.06
2023-02-19T23:47:40.237Z,67.84
2023-02-19T23:50:10.398Z,69.07
2023-02-19T23:52:39.183Z,70.94
2023-02-19T23:55:09.608Z,72.20
2023-02-19T23:57:38.387Z,72.94
